createdAt,value
2018-02-01T05:00:51.398Z,0
2018-02-01T05:01:16.882Z,0
2018-02-01T05:01:42.372Z,0
2018-02-01T05:02:07.941Z,0
2018-02-01T05:02:33.345Z,0
2018-02-01T05:02:58.841Z,0
2018-02-01T05:03:24.303Z,0
2018-02-01T05:03:49.770Z,0
2018-02-01T05:04:15.254Z,0
2018-02-01T05:04:40.724Z,0
2018-02-01T05:05:06.225Z,0
2018-02-01T05:05:31.677Z,0
2018-02-01T05:05:57.128Z,0
2018-02-01T05:06:22.622Z,0
2018-02-01T05:06:48.123Z,0
2018-02-01T05:07:13.582Z,0
2018-02-01T05:07:39.052Z,0
2018-02-01T05:08:04.528Z,0
2018-02-01T05:08:29.997Z,0
2018-02-01T05:08:55.469Z,0
2018-02-01T05:09:20.945Z,0
2018-02-01T05:09:46.405Z,0
2018-02-01T05:10:11.897Z,0
2018-02-01T05:10:37.368Z,0
2018-02-01T05:11:02.852Z,0
2018-02-01T05:11:28.359Z,0
2018-02-01T05:11:53.825Z,0
2018-02-01T05:12:19.299Z,0
2018-02-01T05:12:44.762Z,0
2018-02-01T05:13:10.233Z,0
2018-02-01T05:13:35.710Z,0
2018-02-01T05:14:01.174Z,0
2018-02-01T05:14:26.627Z,0
2018-02-01T05:14:52.094Z,0
2018-02-01T05:15:17.574Z,0
2018-02-01T05:15:43.098Z,0
2018-02-01T05:16:51.787Z,0
2018-02-01T05:17:17.271Z,0
2018-02-01T05:17:42.760Z,0
2018-02-01T05:18:08.245Z,0
2018-02-01T05:18:33.748Z,0
2018-02-01T05:18:59.200Z,0
2018-02-01T05:19:24.650Z,0
2018-02-01T05:19:50.145Z,0
2018-02-01T05:20:15.582Z,0
2018-02-01T05:20:41.056Z,0
2018-02-01T05:21:06.514Z,0
2018-02-01T05:21:31.958Z,0
2018-02-01T05:21:57.471Z,0
2018-02-01T05:22:22.850Z,0
2018-02-01T05:22:48.321Z,0
2018-02-01T05:23:13.822Z,0
2018-02-01T05:23:39.302Z,0
2018-02-01T05:24:04.730Z,0
2018-02-01T05:24:30.179Z,0
2018-02-01T05:24:55.637Z,0
2018-02-01T05:25:21.108Z,0
2018-02-01T05:25:46.592Z,0
2018-02-01T05:26:12.047Z,0
2018-02-01T05:26:37.502Z,0
2018-02-01T05:27:03.079Z,0
2018-02-01T05:27:28.534Z,0
2018-02-01T05:27:54.032Z,0
2018-02-01T05:28:19.481Z,0
2018-02-01T05:28:44.946Z,0
2018-02-01T05:29:10.397Z,0
2018-02-01T05:29:35.872Z,0
2018-02-01T05:30:01.342Z,0
2018-02-01T05:30:26.789Z,0
2018-02-01T05:30:52.237Z,0
2018-02-01T05:31:17.724Z,0
2018-02-01T05:31:43.193Z,0
2018-02-01T05:32:08.622Z,0
2018-02-01T05:32:34.162Z,0
2018-02-01T05:32:59.598Z,0
2018-02-01T05:33:25.061Z,0
2018-02-01T05:33:50.537Z,0
2018-02-01T05:34:15.993Z,0
2018-02-01T05:34:41.449Z,0
2018-02-01T05:35:06.922Z,0
2018-02-01T05:35:32.396Z,0
2018-02-01T05:35:57.869Z,0
2018-02-01T05:36:23.316Z,0
2018-02-01T05:36:48.805Z,0
2018-02-01T05:37:14.319Z,0
2018-02-01T05:37:39.760Z,0
2018-02-01T05:38:05.240Z,0
2018-02-01T05:38:30.724Z,0
2018-02-01T05:38:56.192Z,0
2018-02-01T05:39:21.653Z,0
2018-02-01T05:39:47.120Z,0
2018-02-01T05:40:12.590Z,0
2018-02-01T05:40:38.062Z,0
2018-02-01T05:41:03.711Z,0
2018-02-01T05:41:29.162Z,0
2018-02-01T05:41:54.620Z,0
2018-02-01T05:42:20.080Z,0
2018-02-01T05:42:45.582Z,0
2018-02-01T05:43:11.051Z,0
2018-02-01T05:43:36.498Z,0
2018-02-01T05:44:01.968Z,0
2018-02-01T05:44:27.441Z,0
2018-02-01T05:44:52.960Z,0
2018-02-01T05:45:18.437Z,0
2018-02-01T05:45:43.894Z,0
2018-02-01T05:46:09.389Z,0
2018-02-01T05:46:34.808Z,0
2018-02-01T05:47:00.279Z,0
2018-02-01T05:47:25.757Z,0
2018-02-01T05:47:51.197Z,0
2018-02-01T05:48:16.676Z,0
2018-02-01T05:48:42.258Z,0
2018-02-01T05:49:07.752Z,0
2018-02-01T05:49:33.228Z,0
2018-02-01T05:49:58.681Z,0
2018-02-01T05:50:24.149Z,0
2018-02-01T05:50:49.656Z,0
2018-02-01T05:51:15.142Z,0
2018-02-01T05:51:40.585Z,0
2018-02-01T05:52:06.069Z,0
2018-02-01T05:52:31.531Z,0
2018-02-01T05:52:57.025Z,0
2018-02-01T05:53:22.476Z,0
2018-02-01T05:53:48.020Z,0
2018-02-01T05:54:13.478Z,0
2018-02-01T05:54:38.921Z,0
2018-02-01T05:55:04.432Z,0
2018-02-01T05:55:29.903Z,0
2018-02-01T05:55:55.357Z,0
2018-02-01T05:56:20.838Z,0
2018-02-01T05:56:46.391Z,0
2018-02-01T05:57:11.826Z,0
2018-02-01T05:57:37.315Z,0
2018-02-01T05:58:02.832Z,0
2018-02-01T05:58:28.317Z,0
2018-02-01T05:58:53.768Z,0
2018-02-01T05:59:19.227Z,0
2018-02-01T05:59:44.690Z,0
2018-02-01T06:00:10.166Z,0
2018-02-01T06:00:35.656Z,0
2018-02-01T06:01:01.102Z,0
2018-02-01T06:01:26.571Z,0
2018-02-01T06:01:52.023Z,0
2018-02-01T06:02:17.571Z,0
2018-02-01T06:02:43.042Z,0
2018-02-01T06:03:08.497Z,0
2018-02-01T06:03:33.963Z,0
2018-02-01T06:03:59.403Z,0
2018-02-01T06:04:24.876Z,0
2018-02-01T06:04:50.332Z,0
2018-02-01T06:05:15.779Z,0
2018-02-01T06:05:41.261Z,0
2018-02-01T06:06:06.724Z,0
2018-02-01T06:06:32.222Z,0
2018-02-01T06:06:57.684Z,0
2018-02-01T06:07:23.148Z,0
2018-02-01T06:07:48.627Z,0
2018-02-01T06:08:14.134Z,0
2018-02-01T06:08:39.561Z,0
2018-02-01T06:09:05.040Z,0
2018-02-01T06:09:30.525Z,0
2018-02-01T06:09:55.967Z,0
2018-02-01T06:10:21.441Z,0
2018-02-01T06:10:46.922Z,0
2018-02-01T06:11:12.385Z,0
2018-02-01T06:11:37.892Z,0
2018-02-01T06:12:03.332Z,0
2018-02-01T06:12:28.780Z,0
2018-02-01T06:12:54.237Z,0
2018-02-01T06:13:19.704Z,0
2018-02-01T06:13:45.189Z,0
2018-02-01T06:14:10.625Z,0
2018-02-01T06:14:36.103Z,0
2018-02-01T06:15:01.590Z,0
2018-02-01T06:15:27.061Z,0
2018-02-01T06:15:52.561Z,0
2018-02-01T06:16:18.023Z,0
2018-02-01T06:16:43.485Z,0
2018-02-01T06:17:08.942Z,0
2018-02-01T06:17:34.386Z,0
2018-02-01T06:17:59.893Z,0
2018-02-01T06:18:25.406Z,0
2018-02-01T06:18:50.824Z,0
2018-02-01T06:19:16.250Z,0
2018-02-01T06:19:41.741Z,0
2018-02-01T06:20:07.208Z,0
2018-02-01T06:20:32.667Z,0
2018-02-01T06:20:58.163Z,0
2018-02-01T06:21:23.636Z,0
2018-02-01T06:21:49.167Z,0
2018-02-01T06:22:14.571Z,0
2018-02-01T06:23:33.487Z,0
2018-02-01T06:23:58.978Z,0
2018-02-01T06:24:24.482Z,0
2018-02-01T06:24:49.913Z,0
2018-02-01T06:25:15.397Z,0
2018-02-01T06:25:40.854Z,0
2018-02-01T06:26:06.288Z,0
2018-02-01T06:26:31.789Z,0
2018-02-01T06:26:57.264Z,0
2018-02-01T06:27:22.749Z,0
2018-02-01T06:27:48.194Z,0
2018-02-01T06:28:13.693Z,0
2018-02-01T06:28:39.159Z,0
2018-02-01T06:29:04.618Z,0
2018-02-01T06:29:30.070Z,0
2018-02-01T06:29:55.527Z,0
2018-02-01T06:30:20.998Z,0
2018-02-01T06:30:46.466Z,0
2018-02-01T06:31:11.927Z,0
2018-02-01T06:31:37.549Z,0
2018-02-01T06:32:03.005Z,0
2018-02-01T06:32:28.466Z,0
2018-02-01T06:32:53.942Z,0
2018-02-01T06:33:19.426Z,0
2018-02-01T06:33:44.880Z,0
2018-02-01T06:34:10.335Z,0
2018-02-01T06:34:35.822Z,0
2018-02-01T06:35:49.712Z,0
2018-02-01T06:36:15.221Z,0
2018-02-01T06:36:40.713Z,0
2018-02-01T06:37:06.165Z,0
2018-02-01T06:37:31.603Z,0
2018-02-01T06:37:57.054Z,0
2018-02-01T06:38:22.680Z,0
2018-02-01T06:38:48.245Z,0
2018-02-01T06:39:13.672Z,0
2018-02-01T06:39:39.254Z,0
2018-02-01T06:40:04.728Z,0
2018-02-01T06:40:30.276Z,0
2018-02-01T06:40:55.642Z,0
2018-02-01T06:41:21.102Z,0
2018-02-01T06:41:46.615Z,0
2018-02-01T06:42:12.048Z,0
2018-02-01T06:42:37.521Z,0
2018-02-01T06:43:03.054Z,0
2018-02-01T06:43:28.466Z,0
2018-02-01T06:43:53.931Z,0
2018-02-01T06:44:19.398Z,0
2018-02-01T06:44:44.893Z,0
2018-02-01T06:45:10.320Z,0
2018-02-01T06:45:35.784Z,0
2018-02-01T06:46:01.287Z,0
2018-02-01T06:46:26.703Z,0
2018-02-01T06:46:52.173Z,0
2018-02-01T06:47:17.636Z,0
2018-02-01T06:47:43.094Z,0
2018-02-01T06:48:08.566Z,0
2018-02-01T06:48:33.999Z,0
2018-02-01T06:48:59.564Z,0
2018-02-01T06:49:25.004Z,0
2018-02-01T06:49:50.488Z,0
2018-02-01T06:50:15.974Z,0
2018-02-01T06:50:41.421Z,0
2018-02-01T06:51:06.889Z,0
2018-02-01T06:52:25.811Z,0
2018-02-01T06:52:51.307Z,0
2018-02-01T06:53:16.780Z,0
2018-02-01T06:53:42.286Z,0
2018-02-01T06:54:07.808Z,0
2018-02-01T06:54:33.330Z,0
2018-02-01T06:54:58.781Z,0
2018-02-01T06:55:24.222Z,0
2018-02-01T06:55:49.708Z,0
2018-02-01T06:56:15.233Z,0
2018-02-01T06:56:40.691Z,0
2018-02-01T06:57:06.171Z,0
2018-02-01T06:57:31.589Z,0
2018-02-01T06:57:57.054Z,0
2018-02-01T06:58:22.502Z,0
2018-02-01T06:58:47.992Z,0
2018-02-01T06:59:13.492Z,0
2018-02-01T06:59:38.926Z,0
2018-02-01T07:00:04.374Z,0
2018-02-01T07:00:29.834Z,0
2018-02-01T07:00:55.287Z,0
2018-02-01T07:01:20.755Z,0
2018-02-01T07:01:46.216Z,0
2018-02-01T07:02:11.700Z,0
2018-02-01T07:02:37.150Z,0
2018-02-01T07:03:02.630Z,0
2018-02-01T07:03:28.104Z,0
2018-02-01T07:03:53.540Z,0
2018-02-01T07:04:19.036Z,0
2018-02-01T07:04:44.495Z,0
2018-02-01T07:05:09.942Z,0
2018-02-01T07:05:35.402Z,0
2018-02-01T07:06:00.848Z,0
2018-02-01T07:06:26.344Z,0
2018-02-01T07:06:51.786Z,5
2018-02-01T07:07:17.296Z,5
2018-02-01T07:07:42.762Z,5
2018-02-01T07:08:08.234Z,5
2018-02-01T07:08:33.687Z,5
2018-02-01T07:08:59.147Z,5
2018-02-01T07:09:24.599Z,5
2018-02-01T07:09:50.081Z,5
2018-02-01T07:10:15.606Z,5
2018-02-01T07:10:41.057Z,5
2018-02-01T07:11:06.587Z,5
2018-02-01T07:11:32.031Z,5
2018-02-01T07:11:57.484Z,5
2018-02-01T07:12:22.951Z,5
2018-02-01T07:12:48.538Z,5
2018-02-01T07:13:14.010Z,5
2018-02-01T07:13:39.500Z,5
2018-02-01T07:14:04.952Z,5
2018-02-01T07:14:30.453Z,5
2018-02-01T07:14:55.869Z,5
2018-02-01T07:15:21.330Z,5
2018-02-01T07:15:46.809Z,5
2018-02-01T07:16:12.260Z,10
2018-02-01T07:16:37.734Z,10
2018-02-01T07:17:03.171Z,10
2018-02-01T07:17:28.648Z,10
2018-02-01T07:17:54.112Z,10
2018-02-01T07:18:19.576Z,10
2018-02-01T07:18:45.032Z,10
2018-02-01T07:19:10.498Z,10
2018-02-01T07:19:35.982Z,10
2018-02-01T07:20:01.447Z,10
2018-02-01T07:20:26.909Z,10
2018-02-01T07:20:52.372Z,10
2018-02-01T07:21:17.849Z,10
2018-02-01T07:21:43.304Z,10
2018-02-01T07:22:08.801Z,10
2018-02-01T07:22:34.225Z,15
2018-02-01T07:22:59.724Z,15
2018-02-01T07:23:25.173Z,15
2018-02-01T07:23:50.634Z,15
2018-02-01T07:24:16.125Z,15
2018-02-01T07:24:41.567Z,15
2018-02-01T07:25:07.058Z,15
2018-02-01T07:25:32.543Z,15
2018-02-01T07:25:58.003Z,15
2018-02-01T07:26:23.456Z,15
2018-02-01T07:26:48.936Z,15
2018-02-01T07:27:14.396Z,15
2018-02-01T07:27:39.852Z,15
2018-02-01T07:28:05.324Z,15
2018-02-01T07:28:30.785Z,15
2018-02-01T07:28:56.246Z,20
2018-02-01T07:29:21.694Z,20
2018-02-01T07:29:47.153Z,20
2018-02-01T07:30:12.635Z,20
2018-02-01T07:30:38.118Z,20
2018-02-01T07:31:03.589Z,20
2018-02-01T07:31:29.043Z,20
2018-02-01T07:31:54.563Z,20
2018-02-01T07:32:20.004Z,20
2018-02-01T07:32:45.507Z,20
2018-02-01T07:33:10.963Z,20
2018-02-01T07:33:36.405Z,20
2018-02-01T07:34:01.902Z,25
2018-02-01T07:34:27.471Z,25
2018-02-01T07:34:52.929Z,25
2018-02-01T07:35:18.404Z,25
2018-02-01T07:35:43.857Z,25
2018-02-01T07:36:09.363Z,25
2018-02-01T07:36:34.792Z,25
2018-02-01T07:37:00.274Z,25
2018-02-01T07:37:25.738Z,25
2018-02-01T07:37:51.187Z,25
2018-02-01T07:38:16.703Z,25
2018-02-01T07:38:42.170Z,30
2018-02-01T07:39:07.655Z,30
2018-02-01T07:39:33.114Z,30
2018-02-01T07:39:58.582Z,30
2018-02-01T07:40:24.087Z,30
2018-02-01T07:40:49.517Z,30
2018-02-01T07:41:14.966Z,30
2018-02-01T07:41:40.418Z,30
2018-02-01T07:42:05.859Z,30
2018-02-01T07:42:31.331Z,30
2018-02-01T07:42:56.809Z,30
2018-02-01T07:43:22.297Z,30
2018-02-01T07:43:47.772Z,30
2018-02-01T07:44:13.251Z,30
2018-02-01T07:44:38.695Z,30
2018-02-01T07:45:04.174Z,30
2018-02-01T07:45:29.662Z,30
2018-02-01T07:45:55.156Z,35
2018-02-01T07:46:20.607Z,35
2018-02-01T07:46:46.081Z,35
2018-02-01T07:47:11.553Z,35
2018-02-01T07:47:37.020Z,35
2018-02-01T07:48:02.495Z,35
2018-02-01T07:48:27.967Z,35
2018-02-01T07:48:53.532Z,35
2018-02-01T07:49:18.939Z,35
2018-02-01T07:49:44.415Z,35
2018-02-01T07:50:09.878Z,35
2018-02-01T07:50:35.340Z,35
2018-02-01T07:51:00.835Z,35
2018-02-01T07:51:26.269Z,35
2018-02-01T07:51:51.784Z,35
2018-02-01T07:52:17.191Z,40
2018-02-01T07:52:42.693Z,40
2018-02-01T07:53:08.151Z,40
2018-02-01T07:53:33.597Z,40
2018-02-01T07:53:59.071Z,40
2018-02-01T07:54:24.522Z,40
2018-02-01T07:54:50.004Z,40
2018-02-01T07:55:15.471Z,40
2018-02-01T07:55:40.932Z,40
2018-02-01T07:56:06.424Z,40
2018-02-01T07:56:32.007Z,40
2018-02-01T07:56:57.462Z,40
2018-02-01T07:57:22.946Z,40
2018-02-01T07:57:48.384Z,40
2018-02-01T07:58:13.852Z,40
2018-02-01T07:58:39.309Z,40
2018-02-01T07:59:04.772Z,40
2018-02-01T07:59:30.248Z,40
2018-02-01T07:59:55.727Z,45
2018-02-01T08:00:21.231Z,45
2018-02-01T08:00:46.700Z,45
2018-02-01T08:01:12.222Z,40
2018-02-01T08:01:37.674Z,40
2018-02-01T08:02:03.177Z,45
2018-02-01T08:02:28.650Z,45
2018-02-01T08:02:54.085Z,45
2018-02-01T08:03:19.587Z,45
2018-02-01T08:03:45.071Z,45
2018-02-01T08:04:10.545Z,45
2018-02-01T08:04:36.050Z,45
2018-02-01T08:05:01.480Z,45
2018-02-01T08:05:26.943Z,45
2018-02-01T08:05:52.400Z,45
2018-02-01T08:06:17.892Z,45
2018-02-01T08:06:43.354Z,45
2018-02-01T08:07:08.817Z,45
2018-02-01T08:07:34.302Z,45
2018-02-01T08:07:59.739Z,45
2018-02-01T08:08:25.186Z,45
2018-02-01T08:08:50.677Z,45
2018-02-01T08:09:16.186Z,45
2018-02-01T08:09:41.660Z,45
2018-02-01T08:10:07.153Z,45
2018-02-01T08:10:32.592Z,45
2018-02-01T08:10:58.099Z,45
2018-02-01T08:11:23.535Z,50
2018-02-01T08:11:49.048Z,50
2018-02-01T08:12:14.500Z,50
2018-02-01T08:12:39.953Z,50
2018-02-01T08:13:05.543Z,50
2018-02-01T08:13:30.957Z,50
2018-02-01T08:13:56.499Z,50
2018-02-01T08:14:22.032Z,50
2018-02-01T08:14:47.506Z,55
2018-02-01T08:15:13.032Z,50
2018-02-01T08:15:38.573Z,55
2018-02-01T08:16:04.126Z,55
2018-02-01T08:16:29.633Z,55
2018-02-01T08:16:55.090Z,55
2018-02-01T08:17:20.556Z,55
2018-02-01T08:17:46.029Z,60
2018-02-01T08:18:11.492Z,55
2018-02-01T08:18:36.991Z,55
2018-02-01T08:20:06.251Z,65
2018-02-01T08:20:31.919Z,65
2018-02-01T08:20:57.430Z,65
2018-02-01T08:21:23.018Z,65
2018-02-01T08:21:48.441Z,70
2018-02-01T08:22:13.908Z,70
2018-02-01T08:22:39.405Z,70
2018-02-01T08:23:04.842Z,70
2018-02-01T08:23:30.345Z,70
2018-02-01T08:23:55.805Z,70
2018-02-01T08:24:21.266Z,65
2018-02-01T08:24:46.742Z,70
2018-02-01T08:25:12.190Z,70
2018-02-01T08:25:37.649Z,70
2018-02-01T08:26:03.150Z,70
2018-02-01T08:26:28.613Z,70
2018-02-01T08:26:54.115Z,70
2018-02-01T08:27:19.584Z,70
2018-02-01T08:27:45.113Z,65
2018-02-01T08:28:10.561Z,70
2018-02-01T08:28:36.004Z,75
2018-02-01T08:29:01.439Z,70
2018-02-01T08:29:26.925Z,70
2018-02-01T08:29:52.386Z,70
2018-02-01T08:30:17.859Z,70
2018-02-01T08:30:43.324Z,70
2018-02-01T08:31:08.786Z,70
2018-02-01T08:31:34.265Z,75
2018-02-01T08:31:59.768Z,75
2018-02-01T08:32:25.240Z,75
2018-02-01T08:32:50.685Z,75
2018-02-01T08:33:16.147Z,75
2018-02-01T08:33:41.614Z,75
2018-02-01T08:34:07.067Z,75
2018-02-01T08:34:32.533Z,75
2018-02-01T08:34:58.004Z,75
2018-02-01T08:35:23.465Z,75
2018-02-01T08:35:48.932Z,80
2018-02-01T08:36:14.409Z,75
2018-02-01T08:36:39.879Z,75
2018-02-01T08:37:05.319Z,75
2018-02-01T08:37:30.746Z,75
2018-02-01T08:37:56.230Z,80
2018-02-01T08:38:21.677Z,80
2018-02-01T08:38:47.141Z,80
2018-02-01T08:39:12.640Z,85
2018-02-01T08:39:38.084Z,80
2018-02-01T08:40:03.533Z,80
2018-02-01T08:40:29.001Z,80
2018-02-01T08:40:54.468Z,80
2018-02-01T08:41:19.965Z,80
2018-02-01T08:41:45.456Z,80
2018-02-01T08:42:10.913Z,80
2018-02-01T08:42:36.429Z,80
2018-02-01T08:43:01.840Z,80
2018-02-01T08:43:27.314Z,80
2018-02-01T08:43:52.776Z,80
2018-02-01T08:44:18.248Z,80
2018-02-01T08:44:43.715Z,80
2018-02-01T08:45:09.161Z,80
2018-02-01T08:45:34.624Z,80
2018-02-01T08:46:00.110Z,80
2018-02-01T08:46:25.563Z,80
2018-02-01T08:46:51.031Z,80
2018-02-01T08:47:16.497Z,80
2018-02-01T08:47:41.926Z,80
2018-02-01T08:48:07.389Z,80
2018-02-01T08:48:32.860Z,80
2018-02-01T08:48:58.314Z,80
2018-02-01T08:49:23.803Z,80
2018-02-01T08:49:49.269Z,75
2018-02-01T08:50:14.717Z,80
2018-02-01T08:50:40.270Z,80
2018-02-01T08:51:05.775Z,80
2018-02-01T08:51:31.216Z,85
2018-02-01T08:51:56.715Z,85
2018-02-01T08:52:22.184Z,85
2018-02-01T08:52:47.648Z,85
2018-02-01T08:53:13.142Z,85
2018-02-01T08:53:38.623Z,85
2018-02-01T08:54:04.101Z,85
2018-02-01T08:54:29.573Z,85
2018-02-01T08:54:55.032Z,85
2018-02-01T08:55:20.497Z,85
2018-02-01T08:55:45.997Z,85
2018-02-01T08:56:11.460Z,85
2018-02-01T08:56:36.934Z,85
2018-02-01T08:57:02.389Z,85
2018-02-01T08:57:27.834Z,85
2018-02-01T08:57:53.346Z,85
2018-02-01T08:58:18.860Z,85
2018-02-01T08:58:44.266Z,85
2018-02-01T08:59:09.738Z,85
2018-02-01T08:59:35.180Z,85
2018-02-01T09:00:00.651Z,85
2018-02-01T09:00:26.117Z,85
2018-02-01T09:00:51.563Z,85
2018-02-01T09:01:17.011Z,85
2018-02-01T09:01:42.514Z,85
2018-02-01T09:02:07.963Z,95
2018-02-01T09:02:33.400Z,90
2018-02-01T09:02:58.899Z,90
2018-02-01T09:03:24.377Z,95
2018-02-01T09:03:49.942Z,90
2018-02-01T09:04:15.439Z,90
2018-02-01T09:04:40.867Z,90
2018-02-01T09:05:06.372Z,90
2018-02-01T09:05:31.801Z,90
2018-02-01T09:05:57.235Z,90
2018-02-01T09:06:22.719Z,90
2018-02-01T09:06:48.217Z,95
2018-02-01T09:07:13.709Z,90
2018-02-01T09:07:39.228Z,90
2018-02-01T09:08:04.762Z,95
2018-02-01T09:08:30.200Z,95
2018-02-01T09:08:55.638Z,95
2018-02-01T09:09:21.116Z,95
2018-02-01T09:09:46.569Z,95
2018-02-01T09:10:12.031Z,95
2018-02-01T09:10:37.524Z,95
2018-02-01T09:11:02.999Z,100
2018-02-01T09:11:28.453Z,100
2018-02-01T09:11:53.948Z,100
2018-02-01T09:12:19.400Z,100
2018-02-01T09:12:44.874Z,100
2018-02-01T09:13:10.364Z,100
2018-02-01T09:13:35.778Z,100
2018-02-01T09:14:01.258Z,100
2018-02-01T09:14:26.736Z,105
2018-02-01T09:14:52.236Z,110
2018-02-01T09:15:17.670Z,110
2018-02-01T09:15:43.173Z,110
2018-02-01T09:16:08.629Z,110
2018-02-01T09:16:34.068Z,105
2018-02-01T09:16:59.554Z,110
2018-02-01T09:17:25.019Z,115
2018-02-01T09:17:50.518Z,115
2018-02-01T09:18:15.948Z,115
2018-02-01T09:18:41.458Z,115
2018-02-01T09:19:06.940Z,120
2018-02-01T09:19:32.393Z,115
2018-02-01T09:19:57.916Z,115
2018-02-01T09:20:23.388Z,110
2018-02-01T09:20:48.844Z,115
2018-02-01T09:21:14.295Z,105
2018-02-01T09:21:39.730Z,110
2018-02-01T09:22:05.213Z,110
2018-02-01T09:22:30.663Z,110
2018-02-01T09:22:56.082Z,110
2018-02-01T09:23:21.576Z,110
2018-02-01T09:23:47.042Z,110
2018-02-01T09:24:12.502Z,110
2018-02-01T09:24:38.002Z,110
2018-02-01T09:25:56.872Z,110
2018-02-01T09:26:22.422Z,110
2018-02-01T09:26:47.836Z,110
2018-02-01T09:27:13.384Z,110
2018-02-01T09:27:38.818Z,110
2018-02-01T09:28:04.304Z,110
2018-02-01T09:28:29.759Z,110
2018-02-01T09:28:55.230Z,115
2018-02-01T09:29:20.682Z,115
2018-02-01T09:29:46.197Z,115
2018-02-01T09:30:11.639Z,120
2018-02-01T09:30:37.098Z,120
2018-02-01T09:31:02.592Z,125
2018-02-01T09:31:28.064Z,125
2018-02-01T09:31:53.505Z,125
2018-02-01T09:32:18.949Z,130
2018-02-01T09:32:44.433Z,130
2018-02-01T09:33:09.907Z,130
2018-02-01T09:33:35.381Z,130
2018-02-01T09:34:00.810Z,130
2018-02-01T09:34:26.342Z,130
2018-02-01T09:34:51.774Z,130
2018-02-01T09:35:17.241Z,120
2018-02-01T09:35:42.732Z,125
2018-02-01T09:36:08.218Z,125
2018-02-01T09:36:33.672Z,125
2018-02-01T09:36:59.157Z,120
2018-02-01T09:37:24.600Z,120
2018-02-01T09:37:50.050Z,120
2018-02-01T09:38:15.586Z,115
2018-02-01T09:38:41.040Z,115
2018-02-01T09:39:06.531Z,115
2018-02-01T09:39:31.976Z,120
2018-02-01T09:39:57.456Z,115
2018-02-01T09:40:22.939Z,100
2018-02-01T09:40:48.392Z,115
2018-02-01T09:41:13.897Z,110
2018-02-01T09:41:39.343Z,115
2018-02-01T09:42:04.844Z,110
2018-02-01T09:42:30.261Z,115
2018-02-01T09:42:55.738Z,110
2018-02-01T09:43:21.201Z,95
2018-02-01T09:43:46.626Z,105
2018-02-01T09:44:12.117Z,110
2018-02-01T09:44:37.589Z,110
2018-02-01T09:45:03.086Z,100
2018-02-01T09:45:28.522Z,90
2018-02-01T09:45:53.990Z,85
2018-02-01T09:46:19.463Z,85
2018-02-01T09:46:44.904Z,105
2018-02-01T09:47:10.376Z,95
2018-02-01T09:47:35.894Z,90
2018-02-01T09:48:01.375Z,95
2018-02-01T09:48:26.877Z,100
2018-02-01T09:48:52.327Z,115
2018-02-01T09:49:17.788Z,105
2018-02-01T09:49:43.252Z,110
2018-02-01T09:50:08.744Z,120
2018-02-01T09:50:34.203Z,110
2018-02-01T09:50:59.696Z,105
2018-02-01T09:51:25.171Z,90
2018-02-01T09:51:50.604Z,85
2018-02-01T09:52:16.093Z,90
2018-02-01T09:52:41.547Z,90
2018-02-01T09:53:07.035Z,90
2018-02-01T09:53:32.457Z,105
2018-02-01T09:53:57.932Z,90
2018-02-01T09:54:23.413Z,95
2018-02-01T09:54:48.859Z,105
2018-02-01T09:55:14.325Z,110
2018-02-01T09:55:39.806Z,100
2018-02-01T09:56:05.297Z,95
2018-02-01T09:56:30.763Z,100
2018-02-01T09:57:59.901Z,100
2018-02-01T09:58:25.445Z,120
2018-02-01T09:58:50.857Z,130
2018-02-01T09:59:16.314Z,120
2018-02-01T09:59:41.751Z,130
2018-02-01T10:00:07.245Z,125
2018-02-01T10:00:32.711Z,115
2018-02-01T10:00:58.186Z,105
2018-02-01T10:01:23.677Z,105
2018-02-01T10:01:49.139Z,105
2018-02-01T10:02:14.599Z,105
2018-02-01T10:02:40.056Z,95
2018-02-01T10:03:05.523Z,125
2018-02-01T10:03:31.000Z,135
2018-02-01T10:03:56.469Z,135
2018-02-01T10:04:21.956Z,140
2018-02-01T10:04:47.427Z,150
2018-02-01T10:05:12.913Z,160
2018-02-01T10:05:38.365Z,140
2018-02-01T10:06:03.845Z,125
2018-02-01T10:06:29.309Z,130
2018-02-01T10:06:54.788Z,130
2018-02-01T10:07:20.236Z,130
2018-02-01T10:07:45.713Z,145
2018-02-01T10:08:11.193Z,180
2018-02-01T10:08:36.703Z,185
2018-02-01T10:09:02.145Z,185
2018-02-01T10:09:27.634Z,165
2018-02-01T10:09:53.087Z,185
2018-02-01T10:10:18.623Z,200
2018-02-01T10:10:44.026Z,215
2018-02-01T10:11:09.566Z,225
2018-02-01T10:11:35.065Z,215
2018-02-01T10:12:00.601Z,210
2018-02-01T10:12:26.065Z,215
2018-02-01T10:12:51.518Z,200
2018-02-01T10:13:16.980Z,190
2018-02-01T10:13:42.452Z,165
2018-02-01T10:14:07.907Z,175
2018-02-01T10:14:33.359Z,185
2018-02-01T10:14:58.875Z,150
2018-02-01T10:15:24.459Z,150
2018-02-01T10:15:49.914Z,145
2018-02-01T10:16:15.391Z,130
2018-02-01T10:16:40.856Z,140
2018-02-01T10:17:06.315Z,150
2018-02-01T10:17:31.786Z,155
2018-02-01T10:17:57.302Z,150
2018-02-01T10:18:22.740Z,150
2018-02-01T10:18:48.193Z,135
2018-02-01T10:19:13.679Z,135
2018-02-01T10:19:39.178Z,170
2018-02-01T10:20:04.617Z,140
2018-02-01T10:20:30.084Z,155
2018-02-01T10:20:55.582Z,160
2018-02-01T10:21:21.064Z,125
2018-02-01T10:21:46.542Z,135
2018-02-01T10:22:12.017Z,160
2018-02-01T10:22:37.516Z,155
2018-02-01T10:23:02.985Z,160
2018-02-01T10:23:28.471Z,155
2018-02-01T10:23:53.940Z,150
2018-02-01T10:24:19.438Z,135
2018-02-01T10:24:44.987Z,135
2018-02-01T10:25:10.386Z,135
2018-02-01T10:25:35.877Z,135
2018-02-01T10:26:01.353Z,140
2018-02-01T10:26:26.837Z,145
2018-02-01T10:27:56.058Z,150
2018-02-01T10:28:21.539Z,150
2018-02-01T10:28:47.021Z,155
2018-02-01T10:29:12.497Z,180
2018-02-01T10:29:37.969Z,195
2018-02-01T10:30:03.416Z,185
2018-02-01T10:30:28.916Z,155
2018-02-01T10:30:54.368Z,165
2018-02-01T10:31:19.846Z,165
2018-02-01T10:31:45.285Z,180
2018-02-01T10:32:10.736Z,190
2018-02-01T10:32:36.200Z,200
2018-02-01T10:33:01.665Z,205
2018-02-01T10:33:27.138Z,210
2018-02-01T10:33:52.579Z,205
2018-02-01T10:34:18.057Z,200
2018-02-01T10:34:43.538Z,195
2018-02-01T10:35:08.982Z,200
2018-02-01T10:35:34.456Z,225
2018-02-01T10:35:59.936Z,240
2018-02-01T10:36:25.376Z,235
2018-02-01T10:36:50.865Z,215
2018-02-01T10:37:16.309Z,190
2018-02-01T10:37:41.810Z,180
2018-02-01T10:38:07.248Z,205
2018-02-01T10:38:32.716Z,215
2018-02-01T10:38:58.152Z,220
2018-02-01T10:39:23.627Z,215
2018-02-01T10:39:49.117Z,200
2018-02-01T10:40:14.605Z,200
2018-02-01T10:40:40.043Z,200
2018-02-01T10:41:05.545Z,185
2018-02-01T10:41:31.022Z,165
2018-02-01T10:41:56.489Z,150
2018-02-01T10:42:21.927Z,135
2018-02-01T10:42:47.389Z,140
2018-02-01T10:43:12.888Z,160
2018-02-01T10:43:38.325Z,175
2018-02-01T10:44:03.803Z,155
2018-02-01T10:44:29.274Z,135
2018-02-01T10:44:54.703Z,140
2018-02-01T10:45:20.190Z,130
2018-02-01T10:45:45.665Z,135
2018-02-01T10:46:11.107Z,135
2018-02-01T10:46:36.594Z,145
2018-02-01T10:47:02.066Z,155
2018-02-01T10:47:27.581Z,170
2018-02-01T10:47:53.037Z,175
2018-02-01T10:48:18.495Z,175
2018-02-01T10:48:43.979Z,165
2018-02-01T10:49:09.474Z,170
2018-02-01T10:49:34.982Z,180
2018-02-01T10:50:00.436Z,200
2018-02-01T10:50:25.901Z,165
2018-02-01T10:50:51.381Z,155
2018-02-01T10:51:16.851Z,155
2018-02-01T10:51:42.323Z,150
2018-02-01T10:52:07.767Z,170
2018-02-01T10:52:33.266Z,195
2018-02-01T10:52:58.712Z,205
2018-02-01T10:53:24.166Z,190
2018-02-01T10:53:49.627Z,195
2018-02-01T10:54:15.099Z,185
2018-02-01T10:54:40.604Z,170
2018-02-01T10:55:06.084Z,175
2018-02-01T10:55:31.541Z,185
2018-02-01T10:55:57.024Z,180
2018-02-01T10:56:22.495Z,150
2018-02-01T10:56:48.062Z,140
2018-02-01T10:57:13.529Z,130
2018-02-01T10:57:38.974Z,135
2018-02-01T10:58:04.453Z,140
2018-02-01T10:58:30.012Z,135
2018-02-01T10:58:55.479Z,125
2018-02-01T10:59:20.962Z,125
2018-02-01T10:59:46.422Z,120
2018-02-01T11:00:11.898Z,115
2018-02-01T11:00:37.327Z,105
2018-02-01T11:01:02.798Z,105
2018-02-01T11:01:28.335Z,100
2018-02-01T11:01:53.790Z,85
2018-02-01T11:02:19.261Z,85
2018-02-01T11:02:44.757Z,90
2018-02-01T11:03:10.219Z,110
2018-02-01T11:03:35.672Z,125
2018-02-01T11:04:01.142Z,115
2018-02-01T11:04:26.634Z,95
2018-02-01T11:04:52.051Z,85
2018-02-01T11:05:17.556Z,75
2018-02-01T11:05:43.008Z,60
2018-02-01T11:06:08.487Z,55
2018-02-01T11:06:33.953Z,60
2018-02-01T11:06:59.407Z,60
2018-02-01T11:07:24.889Z,65
2018-02-01T11:07:50.342Z,70
2018-02-01T11:08:15.825Z,80
2018-02-01T11:08:41.286Z,75
2018-02-01T11:09:06.746Z,80
2018-02-01T11:09:32.199Z,85
2018-02-01T11:09:57.646Z,90
2018-02-01T11:10:23.121Z,90
2018-02-01T11:10:48.608Z,75
2018-02-01T11:11:14.100Z,70
2018-02-01T11:11:39.525Z,60
2018-02-01T11:12:05.000Z,50
2018-02-01T11:12:30.478Z,50